createdAt,value
2023-04-09T00:01:23.044Z,44.03
2023-04-09T00:06:45.962Z,44.90
2023-04-09T00:12:08.223Z,46.25
2023-04-09T00:17:30.619Z,41.42
2023-04-09T00:22:52.934Z,41.13
2023-04-09T00:28:16.140Z,38.95
2023-04-09T00:33:38.413Z,41.70
2023-04-09T00:39:00.969Z,37.55
2023-04-09T00:44:23.353Z,40.28
2023-04-09T00:49:46.384Z,40.83
2023-04-09T00:55:11.719Z,42.88
2023-04-09T01:00:34.150Z,41.23
2023-04-09T01:06:16.573Z,40.75
2023-04-09T01:12:07.995Z,43.02
2023-04-09T01:17:35.172Z,36.98
2023-04-09T01:23:25.474Z,37.73
2023-04-09T01:28:54.967Z,38.23
2023-04-09T01:34:19.974Z,39.90
2023-04-09T01:39:43.701Z,39.73
2023-04-09T01:45:06.683Z,40.25
2023-04-09T01:50:29.473Z,37.63
2023-04-09T01:55:52.303Z,35.80
2023-04-09T02:01:19.537Z,42.20
2023-04-09T02:06:46.721Z,34.98
2023-04-09T02:12:23.487Z,39.43
2023-04-09T02:17:45.930Z,44.27
2023-04-09T02:23:08.576Z,42.00
2023-04-09T02:28:31.374Z,41.70
2023-04-09T02:33:54.568Z,40.60
2023-04-09T02:39:16.965Z,45.73
2023-04-09T02:44:39.268Z,40.10
2023-04-09T02:50:01.697Z,43.67
2023-04-09T02:55:24.791Z,43.10
2023-04-09T03:00:47.076Z,45.13
2023-04-09T03:06:10.115Z,43.80
2023-04-09T03:11:32.541Z,39.53
2023-04-09T03:16:54.840Z,42.95
2023-04-09T03:22:17.241Z,42.77
2023-04-09T03:27:39.508Z,41.10
2023-04-09T03:33:01.802Z,42.73
2023-04-09T03:38:24.087Z,41.97
2023-04-09T03:43:46.742Z,41.57
2023-04-09T03:49:09.106Z,40.78
2023-04-09T03:54:31.543Z,44.90
2023-04-09T03:59:53.788Z,46.18
2023-04-09T04:05:16.469Z,44.85
2023-04-09T04:10:40.208Z,48.35
2023-04-09T04:16:02.482Z,42.23
2023-04-09T04:21:28.064Z,43.92
2023-04-09T04:26:50.728Z,42.70
2023-04-09T04:32:12.991Z,45.83
2023-04-09T04:37:36.222Z,42.67
2023-04-09T04:42:58.547Z,43.48
2023-04-09T04:48:21.310Z,40.40
2023-04-09T04:53:43.790Z,45.10
2023-04-09T04:59:07.019Z,39.80
2023-04-09T05:04:29.334Z,36.77
2023-04-09T05:09:51.605Z,37.40
2023-04-09T05:15:14.410Z,41.10
2023-04-09T05:20:37.213Z,40.75
2023-04-09T05:26:02.269Z,42.60
2023-04-09T05:31:24.674Z,40.47
2023-04-09T05:36:46.974Z,47.15
2023-04-09T05:42:09.277Z,39.83
2023-04-09T05:47:31.818Z,47.13
2023-04-09T05:52:54.248Z,43.07
2023-04-09T05:58:22.339Z,46.33
2023-04-09T06:03:44.800Z,42.97
2023-04-09T06:09:07.394Z,42.80
2023-04-09T06:14:29.831Z,42.73
2023-04-09T06:19:52.699Z,40.37
2023-04-09T06:25:15.069Z,37.47
2023-04-09T06:30:37.884Z,39.95
2023-04-09T06:36:01.031Z,33.75
2023-04-09T06:41:23.305Z,37.17
2023-04-09T06:46:45.587Z,33.28
2023-04-09T06:52:08.200Z,34.23
2023-04-09T06:57:32.682Z,39.20
2023-04-09T07:02:57.589Z,37.95
2023-04-09T07:08:20.112Z,30.80
2023-04-09T07:13:42.363Z,35.27
2023-04-09T07:19:06.293Z,36.95
2023-04-09T07:24:28.623Z,31.62
2023-04-09T07:29:51.444Z,28.30
2023-04-09T07:35:15.971Z,26.25
2023-04-09T07:40:38.392Z,28.70
2023-04-09T07:46:03.331Z,25.10
2023-04-09T07:51:25.636Z,25.67
2023-04-09T07:56:47.893Z,23.27
2023-04-09T08:02:13.405Z,24.12
2023-04-09T08:07:35.188Z,21.57
2023-04-09T08:12:57.427Z,21.52
2023-04-09T08:18:19.751Z,20.20
2023-04-09T08:23:42.245Z,22.10
2023-04-09T08:29:04.638Z,24.43
2023-04-09T08:34:26.966Z,20.32
2023-04-09T08:39:49.341Z,23.17
2023-04-09T08:45:12.152Z,22.77
2023-04-09T08:50:37.280Z,23.47
2023-04-09T08:56:00.315Z,55.83
2023-04-09T09:01:33.963Z,25.35
2023-04-09T09:06:58.337Z,20.83
2023-04-09T09:12:22.357Z,20.47
2023-04-09T09:17:46.918Z,44.45
2023-04-09T09:23:10.257Z,21.43
2023-04-09T09:28:32.983Z,21.80
2023-04-09T09:33:55.576Z,21.70
2023-04-09T09:39:19.417Z,19.05
2023-04-09T09:44:51.810Z,21.53
2023-04-09T09:50:14.815Z,19.90
2023-04-09T09:55:39.364Z,21.68
2023-04-09T10:01:03.842Z,19.70
2023-04-09T10:06:27.981Z,19.53
2023-04-09T10:11:52.350Z,18.87
2023-04-09T10:17:15.351Z,19.10
2023-04-09T10:22:40.824Z,20.13
2023-04-09T10:28:14.668Z,21.93
2023-04-09T10:33:40.184Z,20.23
2023-04-09T10:39:05.477Z,18.77
2023-04-09T10:44:44.853Z,21.83
2023-04-09T10:50:24.405Z,38.70
2023-04-09T10:55:54.605Z,18.80
2023-04-09T11:06:36.358Z,19.62
2023-04-09T11:12:01.420Z,23.18
2023-04-09T11:17:23.747Z,22.80
2023-04-09T11:22:47.646Z,20.70
2023-04-09T11:28:10.766Z,26.35
2023-04-09T11:33:37.987Z,23.27
2023-04-09T11:39:01.789Z,22.27
2023-04-09T11:44:24.695Z,22.62
2023-04-09T11:49:47.575Z,22.20
2023-04-09T11:55:13.255Z,22.20
2023-04-09T12:00:36.286Z,24.60
2023-04-09T12:06:00.152Z,22.58
2023-04-09T12:11:31.674Z,23.27
2023-04-09T12:16:56.339Z,21.35
2023-04-09T12:22:18.936Z,24.40
2023-04-09T12:27:41.209Z,22.85
2023-04-09T12:33:04.897Z,23.65
2023-04-09T12:38:27.749Z,22.73
2023-04-09T12:43:50.127Z,26.00
2023-04-09T12:49:12.975Z,26.90
2023-04-09T12:54:35.255Z,25.35
2023-04-09T12:59:57.529Z,25.80
2023-04-09T13:05:20.458Z,23.45
2023-04-09T13:10:43.862Z,23.92
2023-04-09T13:16:06.716Z,26.50
2023-04-09T13:21:29.792Z,24.95
2023-04-09T13:26:52.768Z,26.55
2023-04-09T13:32:15.944Z,23.32
2023-04-09T13:37:38.188Z,25.40
2023-04-09T13:43:01.679Z,25.32
2023-04-09T13:48:25.716Z,23.27
2023-04-09T13:53:48.598Z,24.50
2023-04-09T13:59:11.470Z,21.95
2023-04-09T14:04:33.965Z,25.80
2023-04-09T14:09:56.567Z,27.80
2023-04-09T14:15:19.333Z,25.62
2023-04-09T14:20:41.650Z,25.62
2023-04-09T14:26:04.881Z,24.43
2023-04-09T14:31:27.185Z,24.30
2023-04-09T14:36:49.473Z,26.07
2023-04-09T14:42:13.363Z,32.30
2023-04-09T14:47:35.747Z,21.80
2023-04-09T14:52:58.579Z,20.55
2023-04-09T14:58:22.758Z,21.90
2023-04-09T15:03:45.398Z,21.57
2023-04-09T15:09:08.088Z,20.82
2023-04-09T15:14:31.541Z,22.17
2023-04-09T15:19:53.847Z,20.88
2023-04-09T15:25:16.748Z,23.22
2023-04-09T15:30:39.147Z,19.48
2023-04-09T15:36:01.407Z,17.17
2023-04-09T15:41:24.321Z,16.60
2023-04-09T15:46:47.022Z,17.15
2023-04-09T15:52:09.329Z,17.95
2023-04-09T15:57:31.749Z,17.92
2023-04-09T16:02:54.362Z,17.95
2023-04-09T16:08:16.628Z,17.52
2023-04-09T16:13:39.832Z,17.02
2023-04-09T16:19:02.514Z,16.12
2023-04-09T16:24:25.741Z,22.98
2023-04-09T16:29:47.985Z,17.73
2023-04-09T16:35:10.295Z,15.98
2023-04-09T16:40:33.041Z,16.15
2023-04-09T16:45:55.784Z,16.40
2023-04-09T16:51:18.516Z,14.38
2023-04-09T16:56:41.096Z,16.02
2023-04-09T17:02:04.091Z,15.75
2023-04-09T17:07:27.343Z,18.57
2023-04-09T17:12:50.924Z,17.67
2023-04-09T17:18:13.149Z,15.78
2023-04-09T17:23:35.463Z,16.97
2023-04-09T17:28:57.722Z,89.67
2023-04-09T17:34:20.433Z,18.90
2023-04-09T17:39:43.220Z,25.65
2023-04-09T17:45:06.111Z,30.35
2023-04-09T17:50:28.474Z,31.07
2023-04-09T17:55:54.314Z,30.80
2023-04-09T18:01:18.368Z,24.67
2023-04-09T18:06:40.845Z,26.60
2023-04-09T18:12:03.542Z,25.17
2023-04-09T18:17:26.888Z,24.23
2023-04-09T18:22:49.494Z,24.00
2023-04-09T18:28:11.945Z,19.48
2023-04-09T18:33:34.588Z,22.15
2023-04-09T18:38:58.364Z,25.48
2023-04-09T18:44:22.086Z,24.10
2023-04-09T18:49:45.331Z,22.37
2023-04-09T18:55:07.702Z,26.45
2023-04-09T19:00:30.262Z,23.27
2023-04-09T19:05:52.990Z,22.82
2023-04-09T19:11:15.864Z,27.27
2023-04-09T19:16:38.768Z,23.75
2023-04-09T19:22:02.109Z,21.57
2023-04-09T19:27:25.032Z,29.75
2023-04-09T19:32:47.455Z,24.55
2023-04-09T19:38:09.763Z,24.40
2023-04-09T19:43:32.523Z,16.42
2023-04-09T19:48:56.947Z,18.27
2023-04-09T19:54:19.511Z,18.05
2023-04-09T19:59:42.287Z,17.65
2023-04-09T20:05:04.576Z,15.43
2023-04-09T20:10:28.286Z,11.22
2023-04-09T20:15:50.495Z,10.63
2023-04-09T20:21:14.612Z,10.58
2023-04-09T20:26:37.440Z,42.93
2023-04-09T20:31:59.793Z,12.55
2023-04-09T20:37:22.160Z,8.20
2023-04-09T20:42:45.560Z,11.48
2023-04-09T20:48:08.799Z,6.70
2023-04-09T20:53:31.553Z,9.38
2023-04-09T20:58:54.460Z,13.05
2023-04-09T21:04:17.376Z,25.62
2023-04-09T21:09:39.835Z,10.70
2023-04-09T21:15:02.120Z,9.10
2023-04-09T21:20:25.023Z,10.20
2023-04-09T21:25:47.829Z,8.68
2023-04-09T21:31:10.234Z,7.75
2023-04-09T21:36:34.783Z,7.67
2023-04-09T21:41:57.489Z,7.47
2023-04-09T21:47:19.723Z,7.20
2023-04-09T21:52:43.133Z,7.15
2023-04-09T21:58:06.327Z,6.80
2023-04-09T22:03:29.317Z,6.90
2023-04-09T22:08:55.982Z,10.18
2023-04-09T22:14:17.120Z,8.60
2023-04-09T22:19:40.928Z,10.35
2023-04-09T22:25:03.292Z,7.00
2023-04-09T22:30:26.677Z,6.90
2023-04-09T22:35:49.376Z,9.30
2023-04-09T22:41:13.327Z,8.43
2023-04-09T22:46:35.704Z,8.75
2023-04-09T22:51:58.272Z,6.97
2023-04-09T22:57:20.558Z,8.23
2023-04-09T23:02:44.122Z,13.48
2023-04-09T23:08:06.562Z,10.60
2023-04-09T23:13:29.847Z,16.60
2023-04-09T23:18:53.477Z,12.65
2023-04-09T23:24:16.267Z,14.58
2023-04-09T23:29:38.505Z,11.05
2023-04-09T23:35:01.727Z,13.53
2023-04-09T23:40:24.940Z,11.65
2023-04-09T23:45:48.924Z,9.75
2023-04-09T23:51:11.440Z,9.18
2023-04-09T23:56:34.658Z,11.93
